Terminal Aerodrome Forecast
Issued by NWS

Home | Current Version | Previous Version | Text Only | Print | Product List | Glossary On
Versions: 1 2 3 4 5 6 7 8 9 10 11 12 13 14 15 16 17 18 19 20
000
FTUS46 KMFR 232345 CCA
TAFRBG
TAF COR
KRBG 232345Z 2400/2424 36006KT P6SM FEW080
     FM240300 VRB02KT P6SM SCT250
     FM241300 00000KT 6SM BR SCT008 SCT200
     FM241600 VRB03KT P6SM SCT200
     FM242100 35006KT P6SM FEW200=

USA.gov is the U.S. government's official web portal to all federal, state and local government web resources and services.